Time;durP1;ratioP1;P1;durP2;ratioP2;P2;SDS_P1;SDS_P2;PMS_P1;PMS_P2;Temp;Humidity;BMP_temperature;BMP_pressure;BME280_temperature;BME280_humidity;BME280_pressure;Samples;Min_cycle;Max_cycle;Signal;HPM_P1;HPM_P2
2022/12/17 13:06:35;;;;;;;;;;;;;;;20.68;30.77;97896.03;5056289;28;945;-79
2022/12/17 13:09:05;;;;;;;;;;;;;;;21.10;29.87;97918.81;4980452;28;1111;-79
2022/12/17 13:11:35;;;;;;;;;;;;;;;21.21;29.91;97919.34;4963916;28;1347;-80
2022/12/17 13:14:03;;;;;;;;;;;;;;;21.13;29.93;97915.09;4996811;28;1166;-79
2022/12/17 13:16:35;;;;;;;;;;;;;;;21.09;29.92;97928.56;4980339;28;1115;-79
2022/12/17 13:19:02;;;;;;;;;;;;;;;20.88;30.31;97940.38;4980208;28;1983;-79
2022/12/17 13:21:30;;;;;;;;;;;;;;;21.19;30.09;97938.81;4996376;28;1408;-79
2022/12/17 13:23:55;;;;;;;;;;;;;;;21.20;30.09;97948.88;4980536;28;945;-79
2022/12/17 13:26:29;;;;;;;;;;;;;;;21.32;29.91;97958.69;4996526;28;1044;-79
2022/12/17 13:28:54;;;;;;;;;;;;;;;20.91;30.83;97962.13;4979968;28;988;-79
2022/12/17 13:31:40;;;;;;;;;;;;;;;20.96;30.62;97967.25;4993747;28;1048;-79
2022/12/17 13:34:08;;;;;;;;;;;;;;;20.64;31.20;97971.66;4957168;28;992;-79
2022/12/17 13:36:42;;;;;;;;;;;;;;;20.65;31.34;97978.91;4956598;29;986;-79
2022/12/17 13:39:20;;;;;;;;;;;;;;;21.15;30.91;97980.53;4957586;29;1910;-79
2022/12/17 13:41:45;;;;;;;;;;;;;;;21.26;30.80;97988.75;4953974;29;1022;-79
2022/12/17 13:44:18;;;;;;;;;;;;;;;21.18;30.69;97999.44;4938048;29;1150;-79
2022/12/17 13:46:44;;;;;;;;;;;;;;;20.72;31.43;98004.16;4981006;28;1007;-79
2022/12/17 13:49:17;;;;;;;;;;;;;;;20.79;31.42;98011.72;5015417;28;943;-79
2022/12/17 13:51:42;;;;;;;;;;;;;;;20.92;31.71;98014.63;4999337;28;924;-79
2022/12/17 13:54:13;;;;;;;;;;;;;;;21.22;30.85;98022.00;5015536;28;905;-79
2022/12/17 13:56:39;;;;;;;;;;;;;;;21.42;30.47;98025.56;4983075;28;988;-79
2022/12/17 13:59:04;;;;;;;;;;;;;;;21.15;30.83;98034.28;5015196;28;1977;-79
2022/12/17 14:01:30;;;;;;;;;;;;;;;20.89;31.47;98043.81;5015688;28;978;-79
2022/12/17 14:03:56;;;;;;;;;;;;;;;20.85;31.42;98034.59;5015291;28;1045;-79
2022/12/17 14:06:22;;;;;;;;;;;;;;;20.90;31.73;98039.75;4999310;28;857;-79
2022/12/17 14:08:48;;;;;;;;;;;;;;;21.10;31.37;98048.97;5014965;28;1000;-79
2022/12/17 14:13:58;;;;;;;;;;;;;;;21.05;31.06;98041.78;5117421;28;896;-79
2022/12/17 14:16:23;;;;;;;;;;;;;;;20.86;31.59;98033.38;5117984;28;942;-79
2022/12/17 14:18:52;;;;;;;;;;;;;;;20.93;31.07;98033.19;5116380;28;1975;-79
2022/12/17 14:21:18;;;;;;;;;;;;;;;20.86;31.40;98039.03;5117549;28;992;-79
2022/12/17 14:23:43;;;;;;;;;;;;;;;21.36;30.46;98015.22;5116673;28;884;-79
2022/12/17 14:26:10;;;;;;;;;;;;;;;21.26;30.43;98005.72;5094730;28;973;-79
2022/12/17 14:28:36;;;;;;;;;;;;;;;20.89;30.85;97993.69;5077900;28;914;-79
2022/12/17 14:31:13;;;;;;;;;;;;;;;20.79;31.26;98001.19;5095415;28;1053;-79
2022/12/17 14:33:39;;;;;;;;;;;;;;;20.84;31.04;98016.06;5077676;28;972;-79
2022/12/17 14:36:05;;;;;;;;;;;;;;;21.09;30.75;98019.09;5077905;28;1040;-79
2022/12/17 14:38:31;;;;;;;;;;;;;;;21.16;30.17;98004.75;5094415;28;1906;-79
2022/12/17 14:42:24;;;;;;;;;;;;;;;21.28;30.02;98004.03;5095469;28;969;-79
2022/12/17 14:43:59;;;;;;;;;;;;;;;21.11;30.25;97998.84;5080429;28;919;-79
2022/12/17 14:46:24;;;;;;;;;;;;;;;20.86;30.57;97982.47;5077675;28;969;-78
2022/12/17 14:48:59;;;;;;;;;;;;;;;20.58;30.95;97983.94;5094745;28;1007;-79
2022/12/17 14:51:35;;;;;;;;;;;;;;;20.58;30.76;97984.72;5094348;28;1028;-79
2022/12/17 14:54:12;;;;;;;;;;;;;;;20.73;30.55;97982.38;5084926;28;1111;-79
2022/12/17 14:56:38;;;;;;;;;;;;;;;21.08;30.12;97975.03;5080752;28;961;-79
2022/12/17 14:59:04;;;;;;;;;;;;;;;21.11;29.84;97977.00;5096722;28;1906;-79
2022/12/17 15:01:29;;;;;;;;;;;;;;;21.03;29.75;97981.22;5096685;28;861;-79
2022/12/17 15:03:55;;;;;;;;;;;;;;;20.76;30.50;97990.75;5077861;28;979;-79
2022/12/17 15:06:21;;;;;;;;;;;;;;;20.72;30.15;97984.38;5095975;28;904;-79
2022/12/17 15:08:47;;;;;;;;;;;;;;;20.97;30.07;97985.81;5094981;28;1004;-79
2022/12/17 15:11:13;;;;;;;;;;;;;;;21.01;29.82;97983.72;5095314;28;1218;-79
2022/12/17 15:13:39;;;;;;;;;;;;;;;21.14;29.42;97981.78;5096319;28;996;-79
2022/12/17 15:16:05;;;;;;;;;;;;;;;20.97;29.45;97980.16;5096980;28;937;-79
2022/12/17 15:18:30;;;;;;;;;;;;;;;20.78;29.83;97976.97;5096236;28;1898;-79
2022/12/17 15:20:55;;;;;;;;;;;;;;;20.68;30.17;97966.72;5096691;28;929;-79
2022/12/17 15:23:22;;;;;;;;;;;;;;;20.86;29.94;97971.16;5096147;28;855;-79
2022/12/17 15:25:48;;;;;;;;;;;;;;;20.92;30.08;97978.66;5096542;28;860;-79
2022/12/17 15:28:13;;;;;;;;;;;;;;;21.03;29.42;97984.06;5096140;28;951;-79
2022/12/17 15:30:39;;;;;;;;;;;;;;;21.09;29.32;97979.47;5061230;28;963;-79
2022/12/17 15:33:05;;;;;;;;;;;;;;;20.90;29.72;97974.69;5096382;28;857;-80
2022/12/17 15:35:30;;;;;;;;;;;;;;;20.85;29.75;97992.19;5096404;28;916;-79
2022/12/17 15:37:56;;;;;;;;;;;;;;;20.75;29.77;97977.84;5077806;28;989;-79
2022/12/17 15:40:21;;;;;;;;;;;;;;;21.03;29.41;97993.34;5096402;28;1973;-80
2022/12/17 15:45:31;;;;;;;;;;;;;;;21.08;29.32;97994.84;5095535;28;820;-79
2022/12/17 15:47:56;;;;;;;;;;;;;;;20.90;29.40;97994.50;5095666;28;775;-79
2022/12/17 15:50:22;;;;;;;;;;;;;;;20.72;29.70;97992.06;5096346;28;891;-80
2022/12/17 15:52:47;;;;;;;;;;;;;;;20.87;29.55;97986.88;5096181;28;937;-79
2022/12/17 15:55:13;;;;;;;;;;;;;;;21.01;29.44;97987.34;5094912;28;1012;-79
2022/12/17 15:57:38;;;;;;;;;;;;;;;21.21;28.99;97987.25;5095641;28;920;-79
2022/12/17 16:00:04;;;;;;;;;;;;;;;21.37;28.48;97994.16;5099823;28;1981;-79
2022/12/17 16:02:30;;;;;;;;;;;;;;;20.90;29.21;98006.59;5099884;28;866;-79
2022/12/17 16:04:56;;;;;;;;;;;;;;;20.66;29.56;98017.25;5100671;28;779;-79
2022/12/17 16:07:21;;;;;;;;;;;;;;;20.74;29.69;98018.69;5099785;28;964;-79
2022/12/17 16:09:47;;;;;;;;;;;;;;;21.27;28.72;98019.44;5099695;28;1038;-77
2022/12/17 16:12:12;;;;;;;;;;;;;;;21.25;28.70;98027.56;5100054;28;1117;-77
2022/12/17 16:14:38;;;;;;;;;;;;;;;21.37;28.63;98016.81;5099981;28;844;-78
2022/12/17 16:17:03;;;;;;;;;;;;;;;20.94;29.08;98032.78;5099523;28;842;-78
2022/12/17 16:19:29;;;;;;;;;;;;;;;20.85;29.35;98026.13;5098325;28;1901;-78
2022/12/17 16:21:54;;;;;;;;;;;;;;;20.74;29.31;98032.03;5099785;28;960;-78
2022/12/17 16:24:20;;;;;;;;;;;;;;;21.29;28.69;98039.59;5099467;28;842;-78
2022/12/17 16:26:45;;;;;;;;;;;;;;;21.28;28.78;98049.31;5099467;28;930;-78
2022/12/17 16:29:11;;;;;;;;;;;;;;;21.29;28.93;98048.06;5098100;28;1099;-78
2022/12/17 16:31:36;;;;;;;;;;;;;;;20.84;29.56;98050.00;5099494;28;982;-78
2022/12/17 16:34:02;;;;;;;;;;;;;;;20.91;29.15;98061.13;5099600;28;991;-78
2022/12/17 16:36:27;;;;;;;;;;;;;;;20.77;29.62;98071.50;5080429;28;1027;-79
2022/12/17 16:38:53;;;;;;;;;;;;;;;21.08;29.29;98074.06;5098954;28;1973;-78
2022/12/17 16:41:18;;;;;;;;;;;;;;;21.19;29.21;98080.28;5097995;28;864;-78
2022/12/17 16:43:44;;;;;;;;;;;;;;;21.38;28.59;98066.50;5099340;28;866;-78
2022/12/17 16:46:21;;;;;;;;;;;;;;;20.95;29.33;98076.00;5097754;28;953;-78
2022/12/17 16:48:47;;;;;;;;;;;;;;;20.81;29.56;98069.41;5097994;28;976;-78
2022/12/17 16:51:16;;;;;;;;;;;;;;;20.88;29.68;98081.78;5099433;28;962;-78
2022/12/17 16:53:41;;;;;;;;;;;;;;;20.76;29.56;98064.28;5097868;28;1118;-78
2022/12/17 16:56:07;;;;;;;;;;;;;;;21.15;29.04;98085.22;5098808;28;1021;-78
2022/12/17 16:58:33;;;;;;;;;;;;;;;21.17;29.04;98094.06;5098511;28;1981;-78
2022/12/17 17:00:58;;;;;;;;;;;;;;;21.21;29.01;98103.25;5099244;28;889;-79
2022/12/17 17:03:24;;;;;;;;;;;;;;;20.88;29.62;98116.56;5079925;28;948;-79
2022/12/17 17:05:49;;;;;;;;;;;;;;;20.57;30.02;98118.00;5098433;28;882;-78
2022/12/17 17:08:15;;;;;;;;;;;;;;;20.87;29.61;98114.16;5098681;28;895;-78
2022/12/17 17:10:40;;;;;;;;;;;;;;;21.11;29.19;98124.13;5098892;28;830;-78
2022/12/17 17:13:06;;;;;;;;;;;;;;;21.16;29.05;98131.28;5098099;28;1039;-79
2022/12/17 17:15:31;;;;;;;;;;;;;;;21.27;29.12;98131.84;5098405;28;782;-79
2022/12/17 17:17:58;;;;;;;;;;;;;;;20.96;29.50;98137.78;5098516;28;722;-79
2022/12/17 17:20:23;;;;;;;;;;;;;;;20.91;29.21;98146.78;5098004;28;1989;-79
2022/12/17 17:22:48;;;;;;;;;;;;;;;20.59;29.87;98138.97;5098424;28;833;-78
2022/12/17 17:25:14;;;;;;;;;;;;;;;20.76;29.65;98153.97;5078737;28;982;-79
2022/12/17 17:27:40;;;;;;;;;;;;;;;20.90;29.78;98152.88;5097968;28;869;-79
2022/12/17 17:30:05;;;;;;;;;;;;;;;21.25;29.19;98140.78;5078826;28;844;-79
2022/12/17 17:32:31;;;;;;;;;;;;;;;21.29;29.13;98141.47;5098026;28;858;-79
2022/12/17 17:34:56;;;;;;;;;;;;;;;21.01;29.65;98142.91;5098071;28;914;-79
2022/12/17 17:37:22;;;;;;;;;;;;;;;20.96;29.81;98134.94;5098374;28;767;-79
2022/12/17 17:39:47;;;;;;;;;;;;;;;20.98;30.12;98140.94;5078501;28;1977;-78
2022/12/17 17:42:12;;;;;;;;;;;;;;;21.31;29.58;98147.53;5097868;28;761;-78
2022/12/17 17:44:38;;;;;;;;;;;;;;;21.37;29.57;98135.69;5078711;28;995;-79
2022/12/17 17:47:03;;;;;;;;;;;;;;;21.05;29.77;98137.19;5098347;28;884;-79
2022/12/17 17:49:29;;;;;;;;;;;;;;;20.99;30.09;98134.09;5096100;28;832;-79
2022/12/17 17:51:54;;;;;;;;;;;;;;;20.72;30.44;98131.41;5097932;28;877;-79
2022/12/17 17:54:20;;;;;;;;;;;;;;;21.11;30.46;98141.09;5097397;28;834;-79
2022/12/17 17:56:45;;;;;;;;;;;;;;;21.31;29.96;98141.88;5098053;28;915;-78
2022/12/17 17:59:16;;;;;;;;;;;;;;;21.42;29.93;98140.81;5097614;28;1903;-78
2022/12/17 18:01:42;;;;;;;;;;;;;;;21.12;30.45;98147.53;5097439;28;726;-79
2022/12/17 18:04:12;;;;;;;;;;;;;;;20.96;30.73;98143.44;5079267;28;809;-78
2022/12/17 18:06:38;;;;;;;;;;;;;;;21.05;30.65;98143.66;5096580;28;778;-78
2022/12/17 18:09:03;;;;;;;;;;;;;;;21.20;30.73;98144.13;5097376;28;746;-79
2022/12/17 18:11:29;;;;;;;;;;;;;;;21.17;30.64;98142.16;5097233;28;1107;-79
2022/12/17 18:13:55;;;;;;;;;;;;;;;21.46;30.15;98144.38;5097500;28;891;-80
2022/12/17 18:16:39;;;;;;;;;;;;;;;21.14;30.66;98145.06;5061427;28;991;-79
2022/12/17 18:19:05;;;;;;;;;;;;;;;21.05;30.78;98148.50;5096684;28;1985;-79
2022/12/17 18:21:31;;;;;;;;;;;;;;;21.02;30.83;98143.72;5095685;28;938;-79
2022/12/17 18:24:09;;;;;;;;;;;;;;;21.06;31.51;98145.22;5096876;28;986;-80
2022/12/17 18:26:41;;;;;;;;;;;;;;;21.35;30.65;98143.81;5097326;28;879;-79
2022/12/17 18:29:25;;;;;;;;;;;;;;;21.47;30.60;98143.94;5096690;28;858;-80
2022/12/17 18:31:51;;;;;;;;;;;;;;;21.32;30.48;98149.13;5097191;28;867;-80
2022/12/17 18:34:17;;;;;;;;;;;;;;;21.07;31.11;98151.69;5096638;28;901;-79
2022/12/17 18:36:43;;;;;;;;;;;;;;;20.96;31.22;98157.56;5095980;28;1166;-79
2022/12/17 18:39:16;;;;;;;;;;;;;;;21.25;31.35;98165.44;5096784;28;1902;-79
2022/12/17 18:44:25;;;;;;;;;;;;;;;21.37;30.87;98180.97;5096811;28;945;-79
2022/12/17 18:46:51;;;;;;;;;;;;;;;21.12;31.30;98175.84;5097187;28;868;-79
2022/12/17 18:49:17;;;;;;;;;;;;;;;21.05;31.24;98176.78;5095619;28;1027;-79
2022/12/17 18:51:42;;;;;;;;;;;;;;;20.75;31.54;98163.69;5097691;28;872;-79
2022/12/17 18:54:10;;;;;;;;;;;;;;;21.12;31.44;98170.97;5096578;28;915;-79
2022/12/17 18:56:36;;;;;;;;;;;;;;;21.27;31.29;98172.25;5095878;28;931;-80
2022/12/17 18:59:01;;;;;;;;;;;;;;;21.36;31.12;98173.72;5095509;28;1910;-79
2022/12/17 19:01:28;;;;;;;;;;;;;;;21.31;31.12;98173.00;5074199;28;1051;-80
2022/12/17 19:03:53;;;;;;;;;;;;;;;20.98;31.61;98159.97;5073871;28;939;-79
2022/12/17 19:06:19;;;;;;;;;;;;;;;20.97;31.35;98158.38;5074231;28;1078;-79
2022/12/17 19:08:45;;;;;;;;;;;;;;;20.94;31.27;98159.25;5074024;28;1048;-79
2022/12/17 19:11:13;;;;;;;;;;;;;;;21.28;31.31;98161.72;5073928;28;1198;-79
2022/12/17 19:13:39;;;;;;;;;;;;;;;21.36;31.01;98162.41;5074235;28;952;-79
2022/12/17 19:16:05;;;;;;;;;;;;;;;21.55;30.99;98164.34;5074233;28;1004;-79
2022/12/17 19:18:31;;;;;;;;;;;;;;;21.19;31.20;98170.84;5073820;28;1993;-79
2022/12/17 19:20:57;;;;;;;;;;;;;;;20.90;31.68;98178.34;5074520;28;950;-79
2022/12/17 19:23:22;;;;;;;;;;;;;;;21.05;31.23;98180.41;5073879;28;1128;-79
2022/12/17 19:25:47;;;;;;;;;;;;;;;21.29;31.23;98181.09;5074082;28;948;-79
2022/12/17 19:28:13;;;;;;;;;;;;;;;21.31;31.10;98184.31;5056682;28;995;-79
2022/12/17 19:30:39;;;;;;;;;;;;;;;21.60;30.79;98178.00;5073797;28;896;-79
2022/12/17 19:33:04;;;;;;;;;;;;;;;21.12;31.31;98182.28;5091364;28;1071;-79
2022/12/17 19:35:30;;;;;;;;;;;;;;;20.90;31.73;98181.97;5101050;28;885;-79
2022/12/17 19:37:55;;;;;;;;;;;;;;;20.84;31.69;98177.25;5100477;28;889;-79
2022/12/17 19:40:22;;;;;;;;;;;;;;;21.26;31.41;98181.19;5100292;28;1982;-79
2022/12/17 19:42:47;;;;;;;;;;;;;;;21.45;30.89;98182.38;5064731;28;1045;-79
2022/12/17 19:45:12;;;;;;;;;;;;;;;21.63;30.79;98193.31;5100358;28;904;-79
2022/12/17 19:47:38;;;;;;;;;;;;;;;21.14;31.16;98191.16;5081491;28;962;-79
2022/12/17 19:50:04;;;;;;;;;;;;;;;21.00;31.46;98192.25;5100223;28;870;-80
2022/12/17 19:52:29;;;;;;;;;;;;;;;21.00;31.47;98180.13;5099250;28;970;-79
2022/12/17 19:54:55;;;;;;;;;;;;;;;21.20;31.73;98171.63;5100052;28;1143;-79
2022/12/17 19:57:20;;;;;;;;;;;;;;;21.24;31.29;98175.97;5100212;28;982;-79
2022/12/17 19:59:46;;;;;;;;;;;;;;;21.31;31.36;98181.50;5099699;28;1906;-80
2022/12/17 20:02:12;;;;;;;;;;;;;;;21.18;31.15;98191.84;5099635;28;794;-79
2022/12/17 20:04:37;;;;;;;;;;;;;;;21.08;31.25;98198.53;5080814;28;900;-79
2022/12/17 20:07:03;;;;;;;;;;;;;;;20.93;31.56;98214.22;5100482;28;823;-79
2022/12/17 20:09:28;;;;;;;;;;;;;;;21.29;31.30;98203.72;5100049;28;1004;-79
2022/12/17 20:11:53;;;;;;;;;;;;;;;21.40;30.81;98214.06;5099881;28;1138;-79
2022/12/17 20:14:20;;;;;;;;;;;;;;;21.36;30.80;98225.47;5099691;28;930;-80
2022/12/17 20:16:45;;;;;;;;;;;;;;;21.08;31.05;98216.31;5098986;28;989;-79
2022/12/17 20:19:12;;;;;;;;;;;;;;;20.99;31.04;98223.81;5080379;28;1975;-79
2022/12/17 20:21:37;;;;;;;;;;;;;;;20.89;31.24;98224.81;5099060;28;1005;-79
2022/12/17 20:24:03;;;;;;;;;;;;;;;20.81;31.98;98233.44;5099961;28;944;-79
2022/12/17 20:26:28;;;;;;;;;;;;;;;21.10;31.25;98241.34;5100192;28;948;-79
2022/12/17 20:28:54;;;;;;;;;;;;;;;21.35;31.02;98242.88;5056415;28;930;-80
2022/12/17 20:31:19;;;;;;;;;;;;;;;21.13;31.02;98257.44;5056994;28;1151;-79
2022/12/17 20:33:45;;;;;;;;;;;;;;;20.96;31.54;98264.28;5023499;28;1005;-79
2022/12/17 20:36:14;;;;;;;;;;;;;;;21.00;31.06;98262.97;5056918;28;1018;-80
2022/12/17 20:38:40;;;;;;;;;;;;;;;20.96;31.20;98278.41;5056305;28;1891;-79
2022/12/17 20:41:24;;;;;;;;;;;;;;;21.16;31.28;98279.22;5040279;28;1010;-80
2022/12/17 20:43:49;;;;;;;;;;;;;;;21.43;30.69;98281.91;5056026;28;968;-79
2022/12/17 20:46:15;;;;;;;;;;;;;;;21.14;31.20;98286.53;5057012;28;945;-79
2022/12/17 20:48:40;;;;;;;;;;;;;;;20.88;31.41;98293.91;5056039;28;825;-80
2022/12/17 20:51:10;;;;;;;;;;;;;;;20.87;31.45;98301.59;5056517;28;888;-79
2022/12/17 20:53:36;;;;;;;;;;;;;;;21.12;31.49;98294.66;5055890;28;949;-79
2022/12/17 20:56:01;;;;;;;;;;;;;;;21.37;30.87;98288.53;5023509;28;988;-79
2022/12/17 20:58:27;;;;;;;;;;;;;;;21.37;30.90;98295.00;5055986;28;1906;-79
2022/12/17 21:00:52;;;;;;;;;;;;;;;21.12;31.20;98289.81;5095331;28;1186;-80
2022/12/17 21:03:18;;;;;;;;;;;;;;;21.11;31.02;98295.91;5098609;28;899;-79
2022/12/17 21:05:43;;;;;;;;;;;;;;;20.93;31.48;98299.06;5098852;28;1009;-79
2022/12/17 21:08:08;;;;;;;;;;;;;;;20.92;31.45;98303.13;5098554;28;1086;-79
2022/12/17 21:10:34;;;;;;;;;;;;;;;21.09;31.75;98307.69;5098899;28;970;-79
2022/12/17 21:15:48;;;;;;;;;;;;;;;21.19;31.07;98334.13;5098670;28;1012;-80
2022/12/17 21:18:14;;;;;;;;;;;;;;;21.23;30.81;98334.88;5097508;28;849;-80
2022/12/17 21:20:40;;;;;;;;;;;;;;;20.99;31.39;98325.66;5098474;28;1909;-80
2022/12/17 21:23:05;;;;;;;;;;;;;;;20.84;31.29;98338.47;5098302;28;935;-79
2022/12/17 21:25:30;;;;;;;;;;;;;;;21.00;31.23;98341.38;5097413;28;893;-79
2022/12/17 21:27:56;;;;;;;;;;;;;;;21.26;31.10;98329.16;5098403;28;886;-80
2022/12/17 21:30:21;;;;;;;;;;;;;;;21.30;30.88;98329.91;5098535;28;959;-80
2022/12/17 21:32:47;;;;;;;;;;;;;;;20.96;31.28;98332.16;5098363;28;940;-79
2022/12/17 21:35:14;;;;;;;;;;;;;;;20.92;31.29;98337.09;5098118;28;907;-79
2022/12/17 21:37:39;;;;;;;;;;;;;;;20.89;31.21;98337.97;5098278;28;1016;-79
2022/12/17 21:40:05;;;;;;;;;;;;;;;20.92;31.59;98337.88;5098139;28;1913;-79
2022/12/17 21:45:14;;;;;;;;;;;;;;;21.33;30.81;98329.03;5097004;28;1043;-79
2022/12/17 21:47:40;;;;;;;;;;;;;;;21.16;30.87;98321.66;5098284;28;938;-79
2022/12/17 21:50:05;;;;;;;;;;;;;;;20.85;31.43;98331.56;5097615;28;950;-80
2022/12/17 21:52:31;;;;;;;;;;;;;;;20.89;31.17;98333.09;5097887;28;922;-79
2022/12/17 21:54:56;;;;;;;;;;;;;;;21.25;31.45;98321.09;5097667;28;960;-79
2022/12/17 21:57:22;;;;;;;;;;;;;;;21.32;31.61;98327.44;5096943;28;880;-79
2022/12/17 21:59:47;;;;;;;;;;;;;;;21.47;31.34;98330.78;5097659;28;1968;-79
2022/12/17 22:02:13;;;;;;;;;;;;;;;21.04;31.99;98333.63;5097396;28;862;-79
2022/12/17 22:04:38;;;;;;;;;;;;;;;21.04;31.97;98333.63;5097402;28;906;-79
2022/12/17 22:07:04;;;;;;;;;;;;;;;21.01;31.80;98346.59;5097830;28;1157;-80
2022/12/17 22:09:29;;;;;;;;;;;;;;;21.04;31.94;98344.97;5097403;28;940;-79
2022/12/17 22:14:01;;;;;;;;;;;;;;;21.38;31.93;98343.91;5097747;28;1227;-79
2022/12/17 22:14:40;;;;;;;;;;;;;;;21.50;31.43;98348.91;5097593;28;951;-79
2022/12/17 22:17:05;;;;;;;;;;;;;;;21.43;31.62;98355.53;5096103;28;1034;-80
2022/12/17 22:19:32;;;;;;;;;;;;;;;21.18;31.96;98358.81;5097087;28;1976;-79
2022/12/17 22:21:57;;;;;;;;;;;;;;;21.07;32.03;98361.84;5074596;28;984;-79
2022/12/17 22:24:23;;;;;;;;;;;;;;;20.96;32.25;98364.06;5074816;28;948;-79
2022/12/17 22:26:49;;;;;;;;;;;;;;;21.54;32.17;98341.13;5074822;28;968;-79
2022/12/17 22:34:46;;;;;;;;;;;;;;;20.93;32.26;98330.19;5014650;28;974;-79
2022/12/17 22:37:12;;;;;;;;;;;;;;;21.05;31.88;98332.41;5015114;28;1115;-79
2022/12/17 22:39:37;;;;;;;;;;;;;;;21.42;32.26;98336.94;5014520;28;1910;-79
2022/12/17 22:44:47;;;;;;;;;;;;;;;21.37;32.27;98340.28;5014453;28;944;-80
2022/12/17 22:47:12;;;;;;;;;;;;;;;20.91;32.74;98353.25;4981987;28;951;-79
2022/12/17 22:49:37;;;;;;;;;;;;;;;20.96;32.34;98360.44;5014694;28;940;-80
2022/12/17 22:52:03;;;;;;;;;;;;;;;20.84;32.25;98369.56;5017333;28;986;-79
2022/12/17 22:54:28;;;;;;;;;;;;;;;21.01;32.66;98379.75;5034507;28;957;-79
2022/12/17 22:56:54;;;;;;;;;;;;;;;21.20;32.34;98390.31;5034550;28;1008;-80
2022/12/17 22:59:19;;;;;;;;;;;;;;;21.39;31.94;98399.28;5034341;28;1986;-79
2022/12/17 23:01:45;;;;;;;;;;;;;;;21.13;31.85;98398.91;5018100;28;1027;-79
2022/12/17 23:04:11;;;;;;;;;;;;;;;21.00;32.39;98417.78;5034250;28;914;-79
2022/12/17 23:06:36;;;;;;;;;;;;;;;20.92;31.98;98427.59;5034644;28;927;-79
2022/12/17 23:09:02;;;;;;;;;;;;;;;21.11;31.77;98426.88;5038025;28;1423;-79
2022/12/17 23:11:27;;;;;;;;;;;;;;;21.26;31.39;98436.69;5096805;28;1167;-79
2022/12/17 23:13:53;;;;;;;;;;;;;;;21.19;32.09;98442.50;5096668;28;912;-79
2022/12/17 23:16:18;;;;;;;;;;;;;;;21.43;31.70;98445.31;5096882;28;1008;-79
2022/12/17 23:18:44;;;;;;;;;;;;;;;21.03;32.08;98439.53;5096731;28;1906;-79
2022/12/17 23:21:14;;;;;;;;;;;;;;;20.79;32.47;98450.84;5079271;28;889;-79
2022/12/17 23:23:39;;;;;;;;;;;;;;;20.80;31.99;98448.81;5096333;28;902;-79
2022/12/17 23:26:06;;;;;;;;;;;;;;;21.05;32.44;98448.41;5096796;28;951;-79
2022/12/17 23:28:31;;;;;;;;;;;;;;;21.13;32.36;98443.41;5096398;28;862;-79
2022/12/17 23:30:57;;;;;;;;;;;;;;;21.30;31.76;98442.34;5096728;28;929;-79
2022/12/17 23:33:23;;;;;;;;;;;;;;;21.22;31.61;98452.94;5094822;28;1617;-80
2022/12/17 23:35:48;;;;;;;;;;;;;;;21.03;31.62;98470.66;5096537;28;904;-79
2022/12/17 23:38:14;;;;;;;;;;;;;;;20.86;31.94;98474.56;5096161;28;936;-80
2022/12/17 23:40:39;;;;;;;;;;;;;;;21.11;31.28;98466.47;5077517;28;1970;-80
2022/12/17 23:43:04;;;;;;;;;;;;;;;21.08;31.62;98470.16;5096152;28;975;-79
2022/12/17 23:45:30;;;;;;;;;;;;;;;21.14;32.45;98474.13;5096264;28;868;-79
2022/12/17 23:47:56;;;;;;;;;;;;;;;21.35;31.80;98472.16;5096544;28;915;-80
2022/12/17 23:50:21;;;;;;;;;;;;;;;21.35;31.55;98472.16;5096164;28;959;-80
2022/12/17 23:52:47;;;;;;;;;;;;;;;20.87;32.20;98476.16;5096537;28;926;-80
2022/12/17 23:55:12;;;;;;;;;;;;;;;20.97;31.98;98486.50;5096323;28;968;-79
2022/12/17 23:57:38;;;;;;;;;;;;;;;20.88;31.94;98494.75;5095183;28;1218;-80
